sensor_id;sensor_type;location;lat;lon;timestamp;pressure;altitude;pressure_sealevel;temperature
20058;BMP180;10189;49.546;7.906;2024-01-15T00:00:18;97265.00;;;-0.60
20058;BMP180;10189;49.546;7.906;2024-01-15T00:02:44;97280.00;;;-0.60
20058;BMP180;10189;49.546;7.906;2024-01-15T00:05:10;97275.00;;;-0.60
20058;BMP180;10189;49.546;7.906;2024-01-15T00:07:36;97270.00;;;-0.60
20058;BMP180;10189;49.546;7.906;2024-01-15T00:10:02;97262.00;;;-0.60
20058;BMP180;10189;49.546;7.906;2024-01-15T00:12:28;97265.00;;;-0.50
20058;BMP180;10189;49.546;7.906;2024-01-15T00:14:54;97253.00;;;-0.50
20058;BMP180;10189;49.546;7.906;2024-01-15T00:17:20;97266.00;;;-0.50
20058;BMP180;10189;49.546;7.906;2024-01-15T00:19:46;97252.00;;;-0.50
20058;BMP180;10189;49.546;7.906;2024-01-15T00:22:11;97258.00;;;-0.50
20058;BMP180;10189;49.546;7.906;2024-01-15T00:24:37;97242.00;;;-0.50
20058;BMP180;10189;49.546;7.906;2024-01-15T00:27:04;97255.00;;;-0.50
20058;BMP180;10189;49.546;7.906;2024-01-15T00:29:29;97248.00;;;-0.50
20058;BMP180;10189;49.546;7.906;2024-01-15T00:31:55;97247.00;;;-0.50
20058;BMP180;10189;49.546;7.906;2024-01-15T00:34:21;97245.00;;;-0.40
20058;BMP180;10189;49.546;7.906;2024-01-15T00:36:47;97254.00;;;-0.40
20058;BMP180;10189;49.546;7.906;2024-01-15T00:39:13;97238.00;;;-0.40
20058;BMP180;10189;49.546;7.906;2024-01-15T00:41:38;97234.00;;;-0.30
20058;BMP180;10189;49.546;7.906;2024-01-15T00:44:04;97224.00;;;-0.30
20058;BMP180;10189;49.546;7.906;2024-01-15T00:46:30;97234.00;;;-0.40
20058;BMP180;10189;49.546;7.906;2024-01-15T00:48:56;97229.00;;;-0.40
20058;BMP180;10189;49.546;7.906;2024-01-15T00:51:22;97221.00;;;-0.40
20058;BMP180;10189;49.546;7.906;2024-01-15T00:53:47;97220.00;;;-0.30
20058;BMP180;10189;49.546;7.906;2024-01-15T00:56:13;97235.00;;;-0.40
20058;BMP180;10189;49.546;7.906;2024-01-15T00:58:39;97230.00;;;-0.40
20058;BMP180;10189;49.546;7.906;2024-01-15T01:01:05;97230.00;;;-0.30
20058;BMP180;10189;49.546;7.906;2024-01-15T01:03:31;97231.00;;;-0.40
20058;BMP180;10189;49.546;7.906;2024-01-15T01:05:57;97225.00;;;-0.40
20058;BMP180;10189;49.546;7.906;2024-01-15T01:08:22;97208.00;;;-0.40
20058;BMP180;10189;49.546;7.906;2024-01-15T01:10:48;97219.00;;;-0.40
20058;BMP180;10189;49.546;7.906;2024-01-15T01:13:14;97216.00;;;-0.20
20058;BMP180;10189;49.546;7.906;2024-01-15T01:15:40;97217.00;;;-0.30
20058;BMP180;10189;49.546;7.906;2024-01-15T01:18:06;97218.00;;;-0.20
20058;BMP180;10189;49.546;7.906;2024-01-15T01:20:32;97220.00;;;-0.30
20058;BMP180;10189;49.546;7.906;2024-01-15T01:22:58;97217.00;;;-0.30
20058;BMP180;10189;49.546;7.906;2024-01-15T01:25:23;97218.00;;;-0.20
20058;BMP180;10189;49.546;7.906;2024-01-15T01:27:49;97234.00;;;-0.20
20058;BMP180;10189;49.546;7.906;2024-01-15T01:30:15;97220.00;;;-0.20
20058;BMP180;10189;49.546;7.906;2024-01-15T01:32:41;97227.00;;;-0.30
20058;BMP180;10189;49.546;7.906;2024-01-15T01:35:07;97216.00;;;-0.20
20058;BMP180;10189;49.546;7.906;2024-01-15T01:37:33;97210.00;;;-0.10
20058;BMP180;10189;49.546;7.906;2024-01-15T01:40:00;97193.00;;;0.00
20058;BMP180;10189;49.546;7.906;2024-01-15T01:42:25;97219.00;;;-0.20
20058;BMP180;10189;49.546;7.906;2024-01-15T01:44:51;97217.00;;;-0.10
20058;BMP180;10189;49.546;7.906;2024-01-15T01:47:18;97209.00;;;-0.10
20058;BMP180;10189;49.546;7.906;2024-01-15T01:49:44;97210.00;;;-0.20
20058;BMP180;10189;49.546;7.906;2024-01-15T01:52:10;97199.00;;;-0.10
20058;BMP180;10189;49.546;7.906;2024-01-15T01:54:38;97196.00;;;-0.10
20058;BMP180;10189;49.546;7.906;2024-01-15T01:57:06;97192.00;;;-0.20
20058;BMP180;10189;49.546;7.906;2024-01-15T01:59:34;97196.00;;;-0.20
20058;BMP180;10189;49.546;7.906;2024-01-15T02:02:03;97195.00;;;-0.10
20058;BMP180;10189;49.546;7.906;2024-01-15T02:04:31;97196.00;;;-0.20
20058;BMP180;10189;49.546;7.906;2024-01-15T02:06:57;97198.00;;;-0.20
20058;BMP180;10189;49.546;7.906;2024-01-15T02:09:24;97203.00;;;-0.20
20058;BMP180;10189;49.546;7.906;2024-01-15T02:11:50;97188.00;;;-0.20
20058;BMP180;10189;49.546;7.906;2024-01-15T02:14:17;97193.00;;;-0.10
20058;BMP180;10189;49.546;7.906;2024-01-15T02:16:43;97189.00;;;-0.20
20058;BMP180;10189;49.546;7.906;2024-01-15T02:19:16;97184.00;;;-0.20
20058;BMP180;10189;49.546;7.906;2024-01-15T02:21:43;97182.00;;;0.00
20058;BMP180;10189;49.546;7.906;2024-01-15T02:24:09;97176.00;;;-0.10
20058;BMP180;10189;49.546;7.906;2024-01-15T02:26:35;97174.00;;;-0.10
20058;BMP180;10189;49.546;7.906;2024-01-15T02:29:03;97172.00;;;0.00
20058;BMP180;10189;49.546;7.906;2024-01-15T02:31:29;97148.00;;;0.00
20058;BMP180;10189;49.546;7.906;2024-01-15T02:33:54;97134.00;;;0.00
20058;BMP180;10189;49.546;7.906;2024-01-15T02:36:20;97124.00;;;0.00
20058;BMP180;10189;49.546;7.906;2024-01-15T02:38:46;97129.00;;;0.00
20058;BMP180;10189;49.546;7.906;2024-01-15T02:41:12;97133.00;;;0.00
20058;BMP180;10189;49.546;7.906;2024-01-15T02:43:40;97142.00;;;0.00
20058;BMP180;10189;49.546;7.906;2024-01-15T02:46:07;97151.00;;;0.00
20058;BMP180;10189;49.546;7.906;2024-01-15T02:48:32;97144.00;;;0.00
20058;BMP180;10189;49.546;7.906;2024-01-15T02:51:01;97144.00;;;0.00
20058;BMP180;10189;49.546;7.906;2024-01-15T02:53:27;97155.00;;;0.00
20058;BMP180;10189;49.546;7.906;2024-01-15T02:55:53;97132.00;;;0.10
20058;BMP180;10189;49.546;7.906;2024-01-15T02:58:19;97130.00;;;0.10
20058;BMP180;10189;49.546;7.906;2024-01-15T03:00:45;97159.00;;;0.00
20058;BMP180;10189;49.546;7.906;2024-01-15T03:03:12;97173.00;;;0.00
20058;BMP180;10189;49.546;7.906;2024-01-15T03:05:38;97164.00;;;0.10
20058;BMP180;10189;49.546;7.906;2024-01-15T03:08:04;97164.00;;;0.10
20058;BMP180;10189;49.546;7.906;2024-01-15T03:10:30;97171.00;;;0.20
20058;BMP180;10189;49.546;7.906;2024-01-15T03:12:57;97168.00;;;0.20
20058;BMP180;10189;49.546;7.906;2024-01-15T03:15:23;97167.00;;;0.30
20058;BMP180;10189;49.546;7.906;2024-01-15T03:17:49;97175.00;;;0.20
20058;BMP180;10189;49.546;7.906;2024-01-15T03:20:15;97156.00;;;0.10
20058;BMP180;10189;49.546;7.906;2024-01-15T03:22:41;97160.00;;;0.10
20058;BMP180;10189;49.546;7.906;2024-01-15T03:25:07;97174.00;;;0.10
20058;BMP180;10189;49.546;7.906;2024-01-15T03:27:33;97179.00;;;0.10
20058;BMP180;10189;49.546;7.906;2024-01-15T03:29:59;97177.00;;;0.20
20058;BMP180;10189;49.546;7.906;2024-01-15T03:32:25;97172.00;;;0.20
20058;BMP180;10189;49.546;7.906;2024-01-15T03:34:51;97173.00;;;0.20
20058;BMP180;10189;49.546;7.906;2024-01-15T03:37:18;97177.00;;;0.30
20058;BMP180;10189;49.546;7.906;2024-01-15T03:39:44;97167.00;;;0.20
20058;BMP180;10189;49.546;7.906;2024-01-15T03:42:09;97168.00;;;0.20
20058;BMP180;10189;49.546;7.906;2024-01-15T03:44:35;97162.00;;;0.30
20058;BMP180;10189;49.546;7.906;2024-01-15T03:47:01;97158.00;;;0.30
20058;BMP180;10189;49.546;7.906;2024-01-15T03:49:27;97142.00;;;0.30
20058;BMP180;10189;49.546;7.906;2024-01-15T03:51:53;97144.00;;;0.40
20058;BMP180;10189;49.546;7.906;2024-01-15T03:54:18;97152.00;;;0.30
20058;BMP180;10189;49.546;7.906;2024-01-15T03:56:44;97148.00;;;0.30
20058;BMP180;10189;49.546;7.906;2024-01-15T03:59:10;97143.00;;;0.30
20058;BMP180;10189;49.546;7.906;2024-01-15T04:01:36;97139.00;;;0.30
20058;BMP180;10189;49.546;7.906;2024-01-15T04:04:02;97126.00;;;0.40
20058;BMP180;10189;49.546;7.906;2024-01-15T04:06:28;97129.00;;;0.30
20058;BMP180;10189;49.546;7.906;2024-01-15T04:08:53;97132.00;;;0.30
20058;BMP180;10189;49.546;7.906;2024-01-15T04:11:19;97119.00;;;0.40
20058;BMP180;10189;49.546;7.906;2024-01-15T04:13:45;97102.00;;;0.40
20058;BMP180;10189;49.546;7.906;2024-01-15T04:16:11;97109.00;;;0.40
20058;BMP180;10189;49.546;7.906;2024-01-15T04:18:37;97114.00;;;0.40
20058;BMP180;10189;49.546;7.906;2024-01-15T04:21:05;97114.00;;;0.40
20058;BMP180;10189;49.546;7.906;2024-01-15T04:23:33;97108.00;;;0.40
20058;BMP180;10189;49.546;7.906;2024-01-15T04:25:59;97092.00;;;0.50
20058;BMP180;10189;49.546;7.906;2024-01-15T04:28:25;97118.00;;;0.40
20058;BMP180;10189;49.546;7.906;2024-01-15T04:30:50;97095.00;;;0.40
20058;BMP180;10189;49.546;7.906;2024-01-15T04:33:16;97093.00;;;0.50
20058;BMP180;10189;49.546;7.906;2024-01-15T04:35:42;97108.00;;;0.60
20058;BMP180;10189;49.546;7.906;2024-01-15T04:38:08;97099.00;;;0.60
20058;BMP180;10189;49.546;7.906;2024-01-15T04:40:34;97101.00;;;0.60
20058;BMP180;10189;49.546;7.906;2024-01-15T04:43:00;97090.00;;;0.50
20058;BMP180;10189;49.546;7.906;2024-01-15T04:45:25;97082.00;;;0.50
20058;BMP180;10189;49.546;7.906;2024-01-15T04:47:55;97075.00;;;0.50
20058;BMP180;10189;49.546;7.906;2024-01-15T04:50:23;97070.00;;;0.50
20058;BMP180;10189;49.546;7.906;2024-01-15T04:52:50;97076.00;;;0.60
20058;BMP180;10189;49.546;7.906;2024-01-15T04:55:16;97075.00;;;0.60
20058;BMP180;10189;49.546;7.906;2024-01-15T04:57:42;97079.00;;;0.60
20058;BMP180;10189;49.546;7.906;2024-01-15T05:00:08;97084.00;;;0.70
20058;BMP180;10189;49.546;7.906;2024-01-15T05:02:34;97094.00;;;0.70
20058;BMP180;10189;49.546;7.906;2024-01-15T05:05:00;97088.00;;;0.70
20058;BMP180;10189;49.546;7.906;2024-01-15T05:07:26;97076.00;;;0.80
20058;BMP180;10189;49.546;7.906;2024-01-15T05:09:52;97084.00;;;0.70
20058;BMP180;10189;49.546;7.906;2024-01-15T05:12:18;97073.00;;;0.80
20058;BMP180;10189;49.546;7.906;2024-01-15T05:14:43;97081.00;;;0.80
20058;BMP180;10189;49.546;7.906;2024-01-15T05:17:09;97076.00;;;0.70
20058;BMP180;10189;49.546;7.906;2024-01-15T05:19:35;97073.00;;;0.80
20058;BMP180;10189;49.546;7.906;2024-01-15T05:22:01;97070.00;;;0.80
20058;BMP180;10189;49.546;7.906;2024-01-15T05:24:27;97066.00;;;0.80
20058;BMP180;10189;49.546;7.906;2024-01-15T05:26:52;97051.00;;;0.80
20058;BMP180;10189;49.546;7.906;2024-01-15T05:29:18;97056.00;;;0.80
20058;BMP180;10189;49.546;7.906;2024-01-15T05:31:44;97042.00;;;0.80
20058;BMP180;10189;49.546;7.906;2024-01-15T05:34:10;97046.00;;;0.80
20058;BMP180;10189;49.546;7.906;2024-01-15T05:36:36;97054.00;;;0.80
20058;BMP180;10189;49.546;7.906;2024-01-15T05:39:02;97042.00;;;0.80
20058;BMP180;10189;49.546;7.906;2024-01-15T05:41:28;97031.00;;;0.80
20058;BMP180;10189;49.546;7.906;2024-01-15T05:43:54;97024.00;;;0.80
20058;BMP180;10189;49.546;7.906;2024-01-15T05:46:20;97032.00;;;0.90
20058;BMP180;10189;49.546;7.906;2024-01-15T05:48:46;97036.00;;;0.80
20058;BMP180;10189;49.546;7.906;2024-01-15T05:51:12;97030.00;;;0.90
20058;BMP180;10189;49.546;7.906;2024-01-15T05:53:38;97021.00;;;0.90
20058;BMP180;10189;49.546;7.906;2024-01-15T05:56:06;97019.00;;;0.90
20058;BMP180;10189;49.546;7.906;2024-01-15T05:58:32;97017.00;;;0.80
20058;BMP180;10189;49.546;7.906;2024-01-15T06:00:57;97029.00;;;0.80
20058;BMP180;10189;49.546;7.906;2024-01-15T06:03:23;97014.00;;;0.80
20058;BMP180;10189;49.546;7.906;2024-01-15T06:05:49;97024.00;;;0.80
20058;BMP180;10189;49.546;7.906;2024-01-15T06:08:15;97004.00;;;0.90
20058;BMP180;10189;49.546;7.906;2024-01-15T06:10:41;97005.00;;;1.00
20058;BMP180;10189;49.546;7.906;2024-01-15T06:13:06;96999.00;;;1.00
20058;BMP180;10189;49.546;7.906;2024-01-15T06:15:32;97019.00;;;0.90
20058;BMP180;10189;49.546;7.906;2024-01-15T06:17:58;97022.00;;;0.90
20058;BMP180;10189;49.546;7.906;2024-01-15T06:20:24;97032.00;;;0.90
20058;BMP180;10189;49.546;7.906;2024-01-15T06:22:50;97036.00;;;0.90
20058;BMP180;10189;49.546;7.906;2024-01-15T06:25:15;97023.00;;;0.90
20058;BMP180;10189;49.546;7.906;2024-01-15T06:27:41;97033.00;;;1.00
20058;BMP180;10189;49.546;7.906;2024-01-15T06:30:08;97033.00;;;1.00
20058;BMP180;10189;49.546;7.906;2024-01-15T06:32:34;97033.00;;;1.10
20058;BMP180;10189;49.546;7.906;2024-01-15T06:35:00;97033.00;;;1.10
20058;BMP180;10189;49.546;7.906;2024-01-15T06:37:25;97038.00;;;1.00
20058;BMP180;10189;49.546;7.906;2024-01-15T06:39:51;97020.00;;;1.10
20058;BMP180;10189;49.546;7.906;2024-01-15T06:42:17;97030.00;;;1.10
20058;BMP180;10189;49.546;7.906;2024-01-15T06:44:43;97032.00;;;1.10
20058;BMP180;10189;49.546;7.906;2024-01-15T06:47:09;97036.00;;;1.10
20058;BMP180;10189;49.546;7.906;2024-01-15T06:49:34;97036.00;;;1.10
20058;BMP180;10189;49.546;7.906;2024-01-15T06:52:00;97034.00;;;1.10
20058;BMP180;10189;49.546;7.906;2024-01-15T06:54:26;97026.00;;;1.20
20058;BMP180;10189;49.546;7.906;2024-01-15T06:56:52;97023.00;;;1.10
20058;BMP180;10189;49.546;7.906;2024-01-15T06:59:18;97029.00;;;1.20
20058;BMP180;10189;49.546;7.906;2024-01-15T07:01:44;97024.00;;;1.10
20058;BMP180;10189;49.546;7.906;2024-01-15T07:04:09;97025.00;;;1.20
20058;BMP180;10189;49.546;7.906;2024-01-15T07:06:35;97021.00;;;1.20
20058;BMP180;10189;49.546;7.906;2024-01-15T07:09:01;97010.00;;;1.20
20058;BMP180;10189;49.546;7.906;2024-01-15T07:11:27;97014.00;;;1.20
20058;BMP180;10189;49.546;7.906;2024-01-15T07:13:53;97003.00;;;1.10
20058;BMP180;10189;49.546;7.906;2024-01-15T07:16:19;97001.00;;;1.10
20058;BMP180;10189;49.546;7.906;2024-01-15T07:18:45;96998.00;;;1.10
20058;BMP180;10189;49.546;7.906;2024-01-15T07:21:11;97001.00;;;1.10
20058;BMP180;10189;49.546;7.906;2024-01-15T07:23:36;97004.00;;;1.10
20058;BMP180;10189;49.546;7.906;2024-01-15T07:26:03;97007.00;;;1.20
20058;BMP180;10189;49.546;7.906;2024-01-15T07:28:31;97012.00;;;1.20
20058;BMP180;10189;49.546;7.906;2024-01-15T07:30:57;96998.00;;;1.30
20058;BMP180;10189;49.546;7.906;2024-01-15T07:33:23;97012.00;;;1.30
20058;BMP180;10189;49.546;7.906;2024-01-15T07:35:49;97009.00;;;1.30
20058;BMP180;10189;49.546;7.906;2024-01-15T07:38:15;97016.00;;;1.40
20058;BMP180;10189;49.546;7.906;2024-01-15T07:40:43;97003.00;;;1.30
20058;BMP180;10189;49.546;7.906;2024-01-15T07:43:09;97009.00;;;1.30
20058;BMP180;10189;49.546;7.906;2024-01-15T07:45:35;97005.00;;;1.40
20058;BMP180;10189;49.546;7.906;2024-01-15T07:48:01;97013.00;;;1.40
20058;BMP180;10189;49.546;7.906;2024-01-15T07:50:26;97011.00;;;1.40
20058;BMP180;10189;49.546;7.906;2024-01-15T07:52:52;97010.00;;;1.40
20058;BMP180;10189;49.546;7.906;2024-01-15T07:55:18;97006.00;;;1.40
20058;BMP180;10189;49.546;7.906;2024-01-15T07:57:44;97003.00;;;1.40
20058;BMP180;10189;49.546;7.906;2024-01-15T08:00:10;97003.00;;;1.50
20058;BMP180;10189;49.546;7.906;2024-01-15T08:02:36;97002.00;;;1.50
20058;BMP180;10189;49.546;7.906;2024-01-15T08:05:02;96997.00;;;1.50
20058;BMP180;10189;49.546;7.906;2024-01-15T08:07:28;97005.00;;;1.50
20058;BMP180;10189;49.546;7.906;2024-01-15T08:09:54;97004.00;;;1.50
20058;BMP180;10189;49.546;7.906;2024-01-15T08:12:20;96998.00;;;1.60
20058;BMP180;10189;49.546;7.906;2024-01-15T08:14:45;96985.00;;;1.60
20058;BMP180;10189;49.546;7.906;2024-01-15T08:17:11;96979.00;;;1.70
20058;BMP180;10189;49.546;7.906;2024-01-15T08:19:37;97003.00;;;1.60
20058;BMP180;10189;49.546;7.906;2024-01-15T08:22:04;96999.00;;;1.60
20058;BMP180;10189;49.546;7.906;2024-01-15T08:24:30;96993.00;;;1.60
20058;BMP180;10189;49.546;7.906;2024-01-15T08:26:57;96987.00;;;1.60
20058;BMP180;10189;49.546;7.906;2024-01-15T08:29:23;96991.00;;;1.70
20058;BMP180;10189;49.546;7.906;2024-01-15T08:31:50;96996.00;;;1.70
20058;BMP180;10189;49.546;7.906;2024-01-15T08:34:16;96987.00;;;1.70
20058;BMP180;10189;49.546;7.906;2024-01-15T08:36:42;96986.00;;;1.60
20058;BMP180;10189;49.546;7.906;2024-01-15T08:39:08;97003.00;;;1.60
20058;BMP180;10189;49.546;7.906;2024-01-15T08:41:34;96993.00;;;1.70
20058;BMP180;10189;49.546;7.906;2024-01-15T08:44:01;96980.00;;;1.70
20058;BMP180;10189;49.546;7.906;2024-01-15T08:46:28;97004.00;;;1.80
20058;BMP180;10189;49.546;7.906;2024-01-15T08:48:56;97001.00;;;1.70
20058;BMP180;10189;49.546;7.906;2024-01-15T08:51:21;96984.00;;;1.80
20058;BMP180;10189;49.546;7.906;2024-01-15T08:53:47;96992.00;;;1.80
20058;BMP180;10189;49.546;7.906;2024-01-15T08:56:13;96980.00;;;1.80
20058;BMP180;10189;49.546;7.906;2024-01-15T08:58:40;96981.00;;;2.00
20058;BMP180;10189;49.546;7.906;2024-01-15T09:01:05;96988.00;;;2.00
20058;BMP180;10189;49.546;7.906;2024-01-15T09:03:32;96980.00;;;2.00
20058;BMP180;10189;49.546;7.906;2024-01-15T09:05:59;96973.00;;;2.00
20058;BMP180;10189;49.546;7.906;2024-01-15T09:08:25;96978.00;;;2.00
20058;BMP180;10189;49.546;7.906;2024-01-15T09:10:53;96969.00;;;2.00
20058;BMP180;10189;49.546;7.906;2024-01-15T09:13:18;96980.00;;;1.90
20058;BMP180;10189;49.546;7.906;2024-01-15T09:15:44;96964.00;;;2.00
20058;BMP180;10189;49.546;7.906;2024-01-15T09:18:10;96969.00;;;2.10
20058;BMP180;10189;49.546;7.906;2024-01-15T09:20:36;96970.00;;;2.30
20058;BMP180;10189;49.546;7.906;2024-01-15T09:23:04;96957.00;;;2.20
20058;BMP180;10189;49.546;7.906;2024-01-15T09:25:30;96967.00;;;2.10
20058;BMP180;10189;49.546;7.906;2024-01-15T09:27:56;96968.00;;;2.20
20058;BMP180;10189;49.546;7.906;2024-01-15T09:30:21;96970.00;;;2.10
20058;BMP180;10189;49.546;7.906;2024-01-15T09:32:47;96967.00;;;2.20
20058;BMP180;10189;49.546;7.906;2024-01-15T09:35:14;96979.00;;;2.30
20058;BMP180;10189;49.546;7.906;2024-01-15T09:37:40;96976.00;;;2.30
20058;BMP180;10189;49.546;7.906;2024-01-15T09:40:08;96960.00;;;2.40
20058;BMP180;10189;49.546;7.906;2024-01-15T09:42:35;96953.00;;;2.40
20058;BMP180;10189;49.546;7.906;2024-01-15T09:45:02;96958.00;;;2.30
20058;BMP180;10189;49.546;7.906;2024-01-15T09:47:29;96944.00;;;2.40
20058;BMP180;10189;49.546;7.906;2024-01-15T09:49:55;96936.00;;;2.40
20058;BMP180;10189;49.546;7.906;2024-01-15T09:52:25;96953.00;;;2.40
20058;BMP180;10189;49.546;7.906;2024-01-15T09:54:51;96972.00;;;2.40
20058;BMP180;10189;49.546;7.906;2024-01-15T09:57:17;96975.00;;;2.40
20058;BMP180;10189;49.546;7.906;2024-01-15T09:59:44;96976.00;;;2.30
20058;BMP180;10189;49.546;7.906;2024-01-15T10:02:13;96962.00;;;2.40
20058;BMP180;10189;49.546;7.906;2024-01-15T10:04:43;96961.00;;;2.30
20058;BMP180;10189;49.546;7.906;2024-01-15T10:07:15;96964.00;;;2.30
20058;BMP180;10189;49.546;7.906;2024-01-15T10:09:43;96960.00;;;2.40
20058;BMP180;10189;49.546;7.906;2024-01-15T10:12:10;96958.00;;;2.40
20058;BMP180;10189;49.546;7.906;2024-01-15T10:14:36;96971.00;;;2.30
20058;BMP180;10189;49.546;7.906;2024-01-15T10:17:12;96969.00;;;2.40
20058;BMP180;10189;49.546;7.906;2024-01-15T10:19:39;96957.00;;;2.50
20058;BMP180;10189;49.546;7.906;2024-01-15T10:22:08;96949.00;;;2.50
20058;BMP180;10189;49.546;7.906;2024-01-15T10:24:37;96935.00;;;2.50
20058;BMP180;10189;49.546;7.906;2024-01-15T10:27:11;96954.00;;;2.40
20058;BMP180;10189;49.546;7.906;2024-01-15T10:29:37;96948.00;;;2.40
20058;BMP180;10189;49.546;7.906;2024-01-15T10:32:06;96940.00;;;2.40
20058;BMP180;10189;49.546;7.906;2024-01-15T10:34:33;96939.00;;;2.30
20058;BMP180;10189;49.546;7.906;2024-01-15T10:37:03;96944.00;;;2.40
20058;BMP180;10189;49.546;7.906;2024-01-15T10:39:29;96930.00;;;2.60
20058;BMP180;10189;49.546;7.906;2024-01-15T10:41:56;96932.00;;;2.70
20058;BMP180;10189;49.546;7.906;2024-01-15T10:44:22;96920.00;;;2.60
20058;BMP180;10189;49.546;7.906;2024-01-15T10:46:47;96919.00;;;2.70
20058;BMP180;10189;49.546;7.906;2024-01-15T10:49:13;96899.00;;;2.70
20058;BMP180;10189;49.546;7.906;2024-01-15T10:51:41;96914.00;;;2.80
20058;BMP180;10189;49.546;7.906;2024-01-15T10:54:09;96913.00;;;2.80
20058;BMP180;10189;49.546;7.906;2024-01-15T10:56:37;96906.00;;;2.90
20058;BMP180;10189;49.546;7.906;2024-01-15T10:59:04;96917.00;;;2.80
20058;BMP180;10189;49.546;7.906;2024-01-15T11:01:31;96913.00;;;2.70
20058;BMP180;10189;49.546;7.906;2024-01-15T11:03:57;96911.00;;;2.60
20058;BMP180;10189;49.546;7.906;2024-01-15T11:06:24;96911.00;;;2.60
20058;BMP180;10189;49.546;7.906;2024-01-15T11:08:52;96923.00;;;2.60
20058;BMP180;10189;49.546;7.906;2024-01-15T11:11:21;96909.00;;;2.70
20058;BMP180;10189;49.546;7.906;2024-01-15T11:13:47;96907.00;;;2.80
20058;BMP180;10189;49.546;7.906;2024-01-15T11:16:16;96912.00;;;2.90
20058;BMP180;10189;49.546;7.906;2024-01-15T11:19:01;96892.00;;;2.90
20058;BMP180;10189;49.546;7.906;2024-01-15T11:21:28;96908.00;;;2.70
20058;BMP180;10189;49.546;7.906;2024-01-15T11:24:00;96902.00;;;2.70
20058;BMP180;10189;49.546;7.906;2024-01-15T11:28:55;96915.00;;;2.80
20058;BMP180;10189;49.546;7.906;2024-01-15T11:34:08;96908.00;;;2.90
20058;BMP180;10189;49.546;7.906;2024-01-15T11:41:59;96925.00;;;2.90
20058;BMP180;10189;49.546;7.906;2024-01-15T11:44:26;96919.00;;;2.90
20058;BMP180;10189;49.546;7.906;2024-01-15T11:47:00;96923.00;;;3.00
20058;BMP180;10189;49.546;7.906;2024-01-15T11:50:05;96918.00;;;3.00
20058;BMP180;10189;49.546;7.906;2024-01-15T11:52:34;96930.00;;;3.10
20058;BMP180;10189;49.546;7.906;2024-01-15T11:55:22;96915.00;;;3.30
20058;BMP180;10189;49.546;7.906;2024-01-15T11:57:53;96913.00;;;3.40
20058;BMP180;10189;49.546;7.906;2024-01-15T12:00:23;96910.00;;;3.60
20058;BMP180;10189;49.546;7.906;2024-01-15T12:02:50;96897.00;;;3.50
20058;BMP180;10189;49.546;7.906;2024-01-15T12:05:18;96917.00;;;3.60
20058;BMP180;10189;49.546;7.906;2024-01-15T12:07:49;96913.00;;;3.40
20058;BMP180;10189;49.546;7.906;2024-01-15T12:10:17;96909.00;;;3.30
20058;BMP180;10189;49.546;7.906;2024-01-15T12:13:00;96912.00;;;3.30
20058;BMP180;10189;49.546;7.906;2024-01-15T12:15:30;96915.00;;;3.50
20058;BMP180;10189;49.546;7.906;2024-01-15T12:17:59;96916.00;;;3.40
20058;BMP180;10189;49.546;7.906;2024-01-15T12:20:31;96918.00;;;3.60
20058;BMP180;10189;49.546;7.906;2024-01-15T12:22:57;96908.00;;;3.30
20058;BMP180;10189;49.546;7.906;2024-01-15T12:25:25;96916.00;;;3.30
20058;BMP180;10189;49.546;7.906;2024-01-15T12:27:56;96923.00;;;3.30
20058;BMP180;10189;49.546;7.906;2024-01-15T12:30:22;96915.00;;;3.30
20058;BMP180;10189;49.546;7.906;2024-01-15T12:32:48;96925.00;;;3.40
20058;BMP180;10189;49.546;7.906;2024-01-15T12:35:14;96908.00;;;3.60
20058;BMP180;10189;49.546;7.906;2024-01-15T12:37:44;96914.00;;;3.50
20058;BMP180;10189;49.546;7.906;2024-01-15T12:40:12;96903.00;;;3.70
20058;BMP180;10189;49.546;7.906;2024-01-15T12:42:42;96911.00;;;3.90
20058;BMP180;10189;49.546;7.906;2024-01-15T12:45:10;96907.00;;;3.80
20058;BMP180;10189;49.546;7.906;2024-01-15T12:47:37;96900.00;;;4.00
20058;BMP180;10189;49.546;7.906;2024-01-15T12:50:08;96912.00;;;4.10
20058;BMP180;10189;49.546;7.906;2024-01-15T12:52:34;96910.00;;;4.30
20058;BMP180;10189;49.546;7.906;2024-01-15T12:55:00;96911.00;;;4.60
20058;BMP180;10189;49.546;7.906;2024-01-15T12:57:27;96909.00;;;4.40
20058;BMP180;10189;49.546;7.906;2024-01-15T12:59:54;96903.00;;;4.20
20058;BMP180;10189;49.546;7.906;2024-01-15T13:02:20;96915.00;;;4.00
20058;BMP180;10189;49.546;7.906;2024-01-15T13:04:46;96902.00;;;4.00
20058;BMP180;10189;49.546;7.906;2024-01-15T13:07:12;96895.00;;;4.10
20058;BMP180;10189;49.546;7.906;2024-01-15T13:09:38;96904.00;;;3.90
20058;BMP180;10189;49.546;7.906;2024-01-15T13:12:05;96898.00;;;3.80
20058;BMP180;10189;49.546;7.906;2024-01-15T13:14:31;96916.00;;;3.70
20058;BMP180;10189;49.546;7.906;2024-01-15T13:16:59;96926.00;;;3.80
20058;BMP180;10189;49.546;7.906;2024-01-15T13:19:25;96919.00;;;3.80
20058;BMP180;10189;49.546;7.906;2024-01-15T13:21:51;96908.00;;;3.60
20058;BMP180;10189;49.546;7.906;2024-01-15T13:24:21;96920.00;;;3.60
20058;BMP180;10189;49.546;7.906;2024-01-15T13:26:48;96925.00;;;3.50
20058;BMP180;10189;49.546;7.906;2024-01-15T13:29:13;96926.00;;;3.40
20058;BMP180;10189;49.546;7.906;2024-01-15T13:31:40;96923.00;;;3.50
20058;BMP180;10189;49.546;7.906;2024-01-15T13:34:06;96915.00;;;3.60
20058;BMP180;10189;49.546;7.906;2024-01-15T13:36:33;96921.00;;;3.70
20058;BMP180;10189;49.546;7.906;2024-01-15T13:38:59;96916.00;;;3.70
20058;BMP180;10189;49.546;7.906;2024-01-15T13:41:25;96920.00;;;3.80
20058;BMP180;10189;49.546;7.906;2024-01-15T13:43:54;96921.00;;;3.80
20058;BMP180;10189;49.546;7.906;2024-01-15T13:46:23;96916.00;;;4.10
20058;BMP180;10189;49.546;7.906;2024-01-15T13:48:49;96922.00;;;4.20
20058;BMP180;10189;49.546;7.906;2024-01-15T13:51:16;96924.00;;;4.40
20058;BMP180;10189;49.546;7.906;2024-01-15T13:53:42;96927.00;;;4.30
20058;BMP180;10189;49.546;7.906;2024-01-15T13:56:08;96927.00;;;4.30
20058;BMP180;10189;49.546;7.906;2024-01-15T13:58:36;96929.00;;;4.20
20058;BMP180;10189;49.546;7.906;2024-01-15T14:01:03;96932.00;;;3.80
20058;BMP180;10189;49.546;7.906;2024-01-15T14:03:32;96931.00;;;3.70
20058;BMP180;10189;49.546;7.906;2024-01-15T14:05:58;96930.00;;;3.90
20058;BMP180;10189;49.546;7.906;2024-01-15T14:08:24;96946.00;;;3.80
20058;BMP180;10189;49.546;7.906;2024-01-15T14:10:51;96949.00;;;3.90
20058;BMP180;10189;49.546;7.906;2024-01-15T14:13:17;96959.00;;;3.80
20058;BMP180;10189;49.546;7.906;2024-01-15T14:15:43;96967.00;;;3.80
20058;BMP180;10189;49.546;7.906;2024-01-15T14:18:09;96962.00;;;3.90
20058;BMP180;10189;49.546;7.906;2024-01-15T14:20:35;96961.00;;;3.70
20058;BMP180;10189;49.546;7.906;2024-01-15T14:23:01;96975.00;;;3.70
20058;BMP180;10189;49.546;7.906;2024-01-15T14:25:26;96981.00;;;3.50